Time;durP1;ratioP1;P1;durP2;ratioP2;P2;SDS_P1;SDS_P2;PMS_P1;PMS_P2;Temp;Humidity;BMP_temperature;BMP_pressure;BME280_temperature;BME280_humidity;BME280_pressure;Samples;Min_cycle;Max_cycle;Signal;HPM_P1;HPM_P2
2024/01/26 00:00:51;;;;;;;8.50;6.47;;;6.30;99.90;;;;;;4972724;28;20027;-83
2024/01/26 00:03:16;;;;;;;10.33;6.80;;;6.30;99.90;;;;;;4972509;28;20039;-83
2024/01/26 00:05:42;;;;;;;7.03;6.03;;;6.30;99.90;;;;;;4974156;28;20041;-83
2024/01/26 00:08:07;;;;;;;11.07;7.80;;;6.30;99.90;;;;;;4957022;28;20078;-82
2024/01/26 00:10:33;;;;;;;20.70;12.17;;;6.40;99.90;;;;;;4974264;28;20093;-83
2024/01/26 00:12:58;;;;;;;17.00;9.93;;;6.40;99.90;;;;;;4972831;28;20027;-83
2024/01/26 00:15:24;;;;;;;14.43;9.70;;;6.40;99.90;;;;;;4974080;28;20117;-83
2024/01/26 00:17:49;;;;;;;12.27;8.57;;;6.40;99.90;;;;;;4975607;28;20031;-83
2024/01/26 00:20:15;;;;;;;10.10;7.30;;;6.40;99.90;;;;;;4968625;28;20067;-83
2024/01/26 00:22:40;;;;;;;9.20;5.87;;;6.40;99.90;;;;;;4969353;28;20082;-83
2024/01/26 00:25:06;;;;;;;9.00;6.00;;;6.40;99.90;;;;;;4970055;28;20027;-83
2024/01/26 00:27:31;;;;;;;8.73;5.80;;;6.50;99.90;;;;;;4969224;28;20031;-83
2024/01/26 00:29:57;;;;;;;7.10;5.63;;;6.50;99.90;;;;;;4969589;28;20035;-83
2024/01/26 00:32:22;;;;;;;6.00;4.97;;;6.40;99.90;;;;;;4968960;28;20094;-83
2024/01/26 00:34:48;;;;;;;6.67;5.00;;;6.40;99.90;;;;;;4969475;28;20591;-83
2024/01/26 00:37:14;;;;;;;6.77;5.30;;;6.50;99.90;;;;;;4971869;28;20027;-83
2024/01/26 00:39:40;;;;;;;7.63;4.97;;;6.50;99.90;;;;;;4968414;28;20030;-84
2024/01/26 00:42:05;;;;;;;6.47;5.33;;;6.40;99.90;;;;;;4969368;28;20043;-83
2024/01/26 00:44:31;;;;;;;8.93;5.20;;;6.50;99.90;;;;;;4967831;28;20114;-83
2024/01/26 00:46:56;;;;;;;5.70;4.90;;;6.50;99.90;;;;;;4970446;28;20115;-83
2024/01/26 00:49:22;;;;;;;6.30;5.50;;;6.50;99.90;;;;;;4971237;28;20049;-83
2024/01/26 00:51:47;;;;;;;7.87;5.50;;;6.50;99.90;;;;;;4970825;28;20119;-83
2024/01/26 00:54:13;;;;;;;6.23;5.00;;;6.50;99.90;;;;;;4971163;28;20109;-83
2024/01/26 00:56:39;;;;;;;7.87;5.37;;;6.50;99.90;;;;;;4954951;28;20038;-83
2024/01/26 00:59:05;;;;;;;6.70;5.47;;;6.50;99.90;;;;;;4971523;28;20117;-83
2024/01/26 01:01:30;;;;;;;6.87;5.70;;;6.50;99.90;;;;;;4971403;28;20031;-83
2024/01/26 01:03:56;;;;;;;7.67;6.10;;;6.50;99.90;;;;;;4972672;28;20114;-83
2024/01/26 01:06:21;;;;;;;8.87;5.97;;;6.50;99.90;;;;;;4971833;28;20023;-83
2024/01/26 01:08:47;;;;;;;7.60;6.30;;;6.50;99.90;;;;;;4972738;28;20039;-83
2024/01/26 01:11:13;;;;;;;9.57;7.23;;;6.50;99.90;;;;;;4972089;28;20059;-83
2024/01/26 01:13:38;;;;;;;12.70;7.80;;;6.50;99.90;;;;;;4970742;28;20030;-83
2024/01/26 01:16:07;;;;;;;10.73;7.90;;;6.40;99.90;;;;;;4970507;28;20413;-83
2024/01/26 01:18:33;;;;;;;11.50;8.70;;;6.40;99.90;;;;;;4971208;28;20035;-83
2024/01/26 01:20:59;;;;;;;10.47;8.30;;;6.50;99.90;;;;;;4969557;28;20042;-84
2024/01/26 01:23:25;;;;;;;12.00;9.37;;;6.40;99.90;;;;;;4969963;28;20110;-82
2024/01/26 01:25:51;;;;;;;11.80;9.20;;;6.50;99.90;;;;;;4971451;28;20098;-83
2024/01/26 01:28:16;;;;;;;14.77;10.83;;;6.40;99.90;;;;;;4968956;28;20069;-83
2024/01/26 01:30:42;;;;;;;18.67;12.77;;;6.40;99.90;;;;;;4971421;28;20058;-84
2024/01/26 01:33:07;;;;;;;14.73;11.97;;;6.40;99.90;;;;;;4972092;28;20086;-83
2024/01/26 01:35:33;;;;;;;17.47;12.33;;;6.40;99.90;;;;;;4971437;28;20041;-83
2024/01/26 01:37:58;;;;;;;16.30;11.27;;;6.40;99.90;;;;;;4970299;28;20023;-83
2024/01/26 01:40:24;;;;;;;10.83;8.33;;;6.40;99.90;;;;;;4970256;28;20406;-83
2024/01/26 01:42:49;;;;;;;8.30;7.13;;;6.40;99.90;;;;;;4970971;28;20038;-83
2024/01/26 01:45:15;;;;;;;10.50;7.00;;;6.40;99.90;;;;;;4953484;28;20046;-82
2024/01/26 01:47:41;;;;;;;9.10;7.33;;;6.40;99.90;;;;;;4971869;28;20050;-84
2024/01/26 01:50:08;;;;;;;9.30;7.27;;;6.40;99.90;;;;;;4971661;28;20119;-83
2024/01/26 01:52:36;;;;;;;9.37;7.23;;;6.40;99.90;;;;;;4972466;28;20069;-83
2024/01/26 01:55:03;;;;;;;7.67;6.43;;;6.40;99.90;;;;;;4973565;28;20779;-83
2024/01/26 01:57:31;;;;;;;9.03;7.10;;;6.40;99.90;;;;;;4954970;28;20023;-83
2024/01/26 01:59:56;;;;;;;7.53;6.07;;;6.40;99.90;;;;;;4971735;28;20173;-83
2024/01/26 02:02:24;;;;;;;9.30;7.87;;;6.40;99.90;;;;;;4972248;28;20098;-83
2024/01/26 02:04:50;;;;;;;8.80;6.27;;;6.40;99.90;;;;;;4973085;28;20053;-83
2024/01/26 02:07:16;;;;;;;7.80;6.37;;;6.40;99.90;;;;;;4971162;28;20042;-83
2024/01/26 02:09:41;;;;;;;9.03;6.97;;;6.40;99.90;;;;;;4971334;28;20063;-83
2024/01/26 02:12:07;;;;;;;9.17;7.33;;;6.40;99.90;;;;;;4972570;28;20031;-83
2024/01/26 02:14:32;;;;;;;9.87;7.43;;;6.40;99.90;;;;;;4972498;28;20019;-83
2024/01/26 02:16:59;;;;;;;9.77;7.57;;;6.50;99.90;;;;;;4970838;28;20031;-83
2024/01/26 02:19:26;;;;;;;10.23;7.07;;;6.50;99.90;;;;;;4970875;28;21029;-83
2024/01/26 02:21:52;;;;;;;10.50;7.40;;;6.50;99.90;;;;;;4972214;28;20022;-83
2024/01/26 02:24:18;;;;;;;10.27;7.60;;;6.50;99.90;;;;;;4972218;28;20026;-83
2024/01/26 02:26:43;;;;;;;10.10;7.37;;;6.60;99.90;;;;;;4973445;28;20273;-84
2024/01/26 02:29:09;;;;;;;10.40;7.57;;;6.60;99.90;;;;;;4973762;28;20106;-83
2024/01/26 02:31:35;;;;;;;10.73;7.07;;;6.60;99.90;;;;;;4972945;28;20123;-83
2024/01/26 02:34:01;;;;;;;13.30;8.33;;;6.60;99.90;;;;;;4971568;28;20062;-83
2024/01/26 02:36:29;;;;;;;11.70;8.80;;;6.60;99.90;;;;;;4972306;28;20023;-83
2024/01/26 02:38:55;;;;;;;10.93;8.73;;;6.60;99.90;;;;;;4972659;28;20030;-84
2024/01/26 02:41:20;;;;;;;11.97;8.73;;;6.70;99.90;;;;;;4972472;28;20035;-84
2024/01/26 02:43:46;;;;;;;11.10;8.57;;;6.70;99.90;;;;;;4969495;28;20785;-83
2024/01/26 02:46:12;;;;;;;11.37;8.47;;;6.70;99.90;;;;;;4971921;28;20049;-83
2024/01/26 02:48:38;;;;;;;10.80;8.40;;;6.70;99.90;;;;;;4970248;28;20023;-84
2024/01/26 02:51:04;;;;;;;12.40;8.53;;;6.70;99.90;;;;;;4971182;28;20435;-83
2024/01/26 02:53:30;;;;;;;10.80;8.67;;;6.70;99.90;;;;;;4970710;28;20027;-84
2024/01/26 02:55:56;;;;;;;12.93;10.00;;;6.70;99.90;;;;;;4970293;28;20054;-83
2024/01/26 02:58:21;;;;;;;13.80;10.23;;;6.70;99.90;;;;;;4969332;28;20038;-83
2024/01/26 03:00:47;;;;;;;13.40;10.97;;;6.70;99.90;;;;;;4969853;28;20086;-83
2024/01/26 03:03:13;;;;;;;13.47;10.47;;;6.70;99.90;;;;;;4970756;28;20066;-83
2024/01/26 03:05:38;;;;;;;15.10;10.27;;;6.70;99.90;;;;;;4970557;28;20019;-84
2024/01/26 03:08:05;;;;;;;13.90;10.33;;;6.70;99.90;;;;;;4968374;28;20030;-84
2024/01/26 03:10:30;;;;;;;14.83;10.80;;;6.70;99.90;;;;;;4970484;28;20027;-83
2024/01/26 03:12:56;;;;;;;16.00;10.87;;;6.80;99.90;;;;;;4971332;28;21405;-83
2024/01/26 03:15:21;;;;;;;13.80;10.07;;;6.80;99.90;;;;;;4972853;28;20031;-83
2024/01/26 03:17:47;;;;;;;17.07;11.20;;;6.80;99.90;;;;;;4968870;28;20034;-83
2024/01/26 03:20:13;;;;;;;17.77;11.00;;;6.80;99.90;;;;;;4968301;28;20047;-84
2024/01/26 03:22:38;;;;;;;15.63;11.60;;;6.90;99.90;;;;;;4971638;28;20083;-84
2024/01/26 03:25:04;;;;;;;15.57;11.17;;;6.90;99.90;;;;;;4969892;28;20482;-83
2024/01/26 03:27:30;;;;;;;15.73;11.70;;;7.00;99.90;;;;;;4972057;28;20034;-84
2024/01/26 03:29:55;;;;;;;14.07;11.27;;;7.00;99.90;;;;;;4970968;28;20034;-84
2024/01/26 03:32:21;;;;;;;16.30;11.20;;;7.10;99.90;;;;;;4970639;28;20074;-83
2024/01/26 03:34:46;;;;;;;16.37;11.07;;;7.10;99.90;;;;;;4972020;28;20043;-83
2024/01/26 03:37:12;;;;;;;13.07;10.23;;;7.10;99.90;;;;;;4970661;28;20037;-83
2024/01/26 03:39:37;;;;;;;14.27;10.60;;;7.20;99.90;;;;;;4969733;28;20023;-82
2024/01/26 03:42:05;;;;;;;13.03;9.87;;;7.20;99.90;;;;;;4969871;28;20031;-83
2024/01/26 03:44:32;;;;;;;13.33;10.17;;;7.20;99.90;;;;;;4969939;28;20057;-83
2024/01/26 03:46:57;;;;;;;13.80;9.93;;;7.20;99.90;;;;;;4971272;28;20057;-83
2024/01/26 03:49:23;;;;;;;13.10;10.07;;;7.20;99.90;;;;;;4969907;28;20149;-83
2024/01/26 03:51:48;;;;;;;12.17;8.97;;;7.30;99.90;;;;;;4968041;28;20035;-83
2024/01/26 03:54:14;;;;;;;11.77;9.00;;;7.30;99.90;;;;;;4970799;28;20250;-83
2024/01/26 03:56:39;;;;;;;12.07;8.53;;;7.40;99.90;;;;;;4972497;28;20030;-84
2024/01/26 03:59:05;;;;;;;9.70;7.87;;;7.40;99.90;;;;;;4975016;28;20035;-83
2024/01/26 04:01:31;;;;;;;9.67;7.60;;;7.40;99.90;;;;;;4974369;28;20070;-83
2024/01/26 04:03:56;;;;;;;8.63;7.10;;;7.50;99.90;;;;;;4972469;28;20059;-83
2024/01/26 04:06:22;;;;;;;9.57;7.77;;;7.50;99.90;;;;;;4973475;28;20031;-83
2024/01/26 04:08:47;;;;;;;8.90;7.17;;;7.50;99.90;;;;;;4974692;28;20027;-83
2024/01/26 04:11:13;;;;;;;9.40;7.87;;;7.50;99.90;;;;;;4976041;28;20031;-84
2024/01/26 04:13:38;;;;;;;9.13;7.00;;;7.60;99.90;;;;;;4974440;28;20046;-83
2024/01/26 04:16:06;;;;;;;9.00;7.13;;;7.60;99.90;;;;;;4974736;28;20066;-84
2024/01/26 04:18:31;;;;;;;9.80;7.00;;;7.70;99.90;;;;;;4973537;28;20066;-84
2024/01/26 04:20:57;;;;;;;9.57;7.10;;;7.60;99.90;;;;;;4973101;28;20055;-84
2024/01/26 04:23:22;;;;;;;10.57;7.33;;;7.60;99.90;;;;;;4974977;28;20070;-84
2024/01/26 04:25:48;;;;;;;9.83;6.73;;;7.60;99.90;;;;;;4972434;28;20587;-83
2024/01/26 04:28:13;;;;;;;10.97;7.77;;;7.60;99.90;;;;;;4972583;28;20123;-83
2024/01/26 04:30:41;;;;;;;9.17;6.93;;;7.60;99.90;;;;;;4973513;28;20027;-84
2024/01/26 04:33:07;;;;;;;10.57;7.80;;;7.60;99.90;;;;;;4973603;28;20018;-85
2024/01/26 04:35:33;;;;;;;10.00;7.17;;;7.60;99.90;;;;;;4975966;28;20135;-84
2024/01/26 04:37:58;;;;;;;12.80;9.03;;;7.60;99.90;;;;;;4975451;28;20030;-84
2024/01/26 04:40:24;;;;;;;11.00;7.87;;;7.60;99.90;;;;;;4973721;28;20169;-84
2024/01/26 04:42:49;;;;;;;12.40;9.50;;;7.60;99.90;;;;;;4974129;28;20027;-83
2024/01/26 04:45:15;;;;;;;10.33;8.20;;;7.60;99.90;;;;;;4973960;28;20077;-84
2024/01/26 04:47:40;;;;;;;11.33;8.27;;;7.60;99.90;;;;;;4971929;28;20031;-83
2024/01/26 04:50:06;;;;;;;11.77;8.77;;;7.50;99.90;;;;;;4973643;28;20031;-83
2024/01/26 04:52:32;;;;;;;11.20;8.50;;;7.50;99.90;;;;;;4972221;28;20027;-83
2024/01/26 04:54:58;;;;;;;12.40;9.13;;;7.50;99.90;;;;;;4974319;28;20066;-84
2024/01/26 04:57:23;;;;;;;12.37;9.13;;;7.50;99.90;;;;;;4972775;28;20027;-83
2024/01/26 04:59:49;;;;;;;11.90;9.43;;;7.50;99.90;;;;;;4973028;28;20027;-83
2024/01/26 05:02:14;;;;;;;11.93;9.47;;;7.50;99.90;;;;;;4973067;28;20039;-83
2024/01/26 05:04:40;;;;;;;10.80;8.90;;;7.50;99.90;;;;;;4972503;28;20106;-84
2024/01/26 05:07:05;;;;;;;11.67;9.23;;;7.50;99.90;;;;;;4971696;28;20042;-83
2024/01/26 05:09:31;;;;;;;11.87;9.23;;;7.50;99.90;;;;;;4973402;28;20038;-84
2024/01/26 05:11:56;;;;;;;12.37;9.37;;;7.50;99.90;;;;;;4973036;28;20027;-83
2024/01/26 05:14:22;;;;;;;11.60;9.17;;;7.40;99.90;;;;;;4970839;28;20042;-84
2024/01/26 05:16:47;;;;;;;10.73;8.60;;;7.40;99.90;;;;;;4969514;28;20576;-84
2024/01/26 05:19:14;;;;;;;11.30;9.33;;;7.40;99.90;;;;;;4968069;28;20049;-86
2024/01/26 05:21:42;;;;;;;9.80;8.07;;;7.40;99.90;;;;;;4969707;28;21150;-85
2024/01/26 05:24:08;;;;;;;10.37;7.93;;;7.40;99.90;;;;;;4972678;28;20031;-85
2024/01/26 05:26:38;;;;;;;8.17;6.70;;;7.40;99.90;;;;;;4968090;28;20030;-85
2024/01/26 05:29:03;;;;;;;10.90;7.60;;;7.40;99.90;;;;;;4969307;28;20018;-86
2024/01/26 05:31:29;;;;;;;7.90;7.10;;;7.40;99.90;;;;;;4948855;28;20018;-87
2024/01/26 05:33:54;;;;;;;12.13;6.43;;;7.40;99.90;;;;;;4952534;28;20034;-87
2024/01/26 05:36:20;;;;;;;8.17;6.73;;;7.40;99.90;;;;;;4968098;28;20030;-86
2024/01/26 05:38:45;;;;;;;10.57;6.70;;;7.40;99.90;;;;;;4969680;28;20476;-84
2024/01/26 05:41:12;;;;;;;7.50;5.97;;;7.40;99.90;;;;;;4969471;28;20693;-84
2024/01/26 05:43:38;;;;;;;6.80;5.57;;;7.40;99.90;;;;;;4973533;28;20023;-84
2024/01/26 05:46:03;;;;;;;7.77;5.60;;;7.40;99.90;;;;;;4973156;28;20034;-84
2024/01/26 05:48:29;;;;;;;6.30;5.03;;;7.40;99.90;;;;;;4973177;28;20042;-84
2024/01/26 05:50:54;;;;;;;8.37;5.03;;;7.30;99.90;;;;;;4969503;28;20027;-84
2024/01/26 05:53:20;;;;;;;8.13;4.60;;;7.30;99.90;;;;;;4972528;28;20081;-84
2024/01/26 05:55:45;;;;;;;5.53;4.30;;;7.30;99.90;;;;;;4971876;28;20577;-84
2024/01/26 05:58:11;;;;;;;5.37;4.47;;;7.30;99.90;;;;;;4954769;28;20042;-85
2024/01/26 06:00:37;;;;;;;4.90;4.23;;;7.30;99.90;;;;;;4966015;28;20133;-84
2024/01/26 06:03:03;;;;;;;5.13;4.40;;;7.30;99.90;;;;;;4970374;28;20110;-84
2024/01/26 06:05:28;;;;;;;6.70;4.30;;;7.30;99.90;;;;;;4971884;28;20045;-85
2024/01/26 06:07:56;;;;;;;5.80;4.20;;;7.30;99.90;;;;;;4950758;28;20544;-84
2024/01/26 06:10:21;;;;;;;6.10;3.90;;;7.30;99.90;;;;;;4965861;28;20027;-84
2024/01/26 06:12:47;;;;;;;5.20;3.87;;;7.20;99.90;;;;;;4953767;28;20023;-85
2024/01/26 06:15:15;;;;;;;5.80;3.30;;;7.30;99.90;;;;;;4967748;28;20027;-85
2024/01/26 06:17:40;;;;;;;4.90;3.40;;;7.30;99.90;;;;;;4970006;28;20039;-86
2024/01/26 06:20:06;;;;;;;4.50;3.10;;;7.30;99.90;;;;;;4971138;28;20371;-86
2024/01/26 06:22:32;;;;;;;5.07;3.20;;;7.20;99.90;;;;;;4972010;28;20042;-85
2024/01/26 06:24:58;;;;;;;3.83;3.23;;;7.20;99.90;;;;;;4970403;28;20417;-85
2024/01/26 06:27:23;;;;;;;3.77;2.63;;;7.20;99.90;;;;;;4971541;28;20035;-85
2024/01/26 06:29:49;;;;;;;5.70;3.10;;;7.20;99.90;;;;;;4969775;28;20517;-85
2024/01/26 06:32:16;;;;;;;6.53;3.07;;;7.20;99.90;;;;;;4969995;28;20034;-85
2024/01/26 06:34:42;;;;;;;5.47;2.93;;;7.20;99.90;;;;;;4968798;28;20041;-85
2024/01/26 06:37:08;;;;;;;4.80;2.80;;;7.20;99.90;;;;;;4967616;28;20050;-85
2024/01/26 06:39:33;;;;;;;3.07;2.37;;;7.20;99.90;;;;;;4965146;28;20505;-85
2024/01/26 06:41:59;;;;;;;5.23;2.53;;;7.20;99.90;;;;;;4965344;28;20990;-85
2024/01/26 06:44:24;;;;;;;3.67;2.83;;;7.20;99.90;;;;;;4964353;28;20018;-85
2024/01/26 06:46:50;;;;;;;5.03;2.87;;;7.20;99.90;;;;;;4964281;28;20728;-84
2024/01/26 06:49:15;;;;;;;4.97;2.90;;;7.20;99.90;;;;;;4962780;28;20098;-84
2024/01/26 06:51:41;;;;;;;4.83;2.80;;;7.20;99.90;;;;;;4966476;28;20117;-85
2024/01/26 06:54:06;;;;;;;5.13;3.23;;;7.20;99.90;;;;;;4967585;28;20018;-85
2024/01/26 06:56:32;;;;;;;6.37;3.70;;;7.20;99.90;;;;;;4951997;28;20041;-85
2024/01/26 06:58:58;;;;;;;6.53;3.10;;;7.20;99.90;;;;;;4967771;28;20486;-86
2024/01/26 07:01:23;;;;;;;7.37;3.60;;;7.20;99.90;;;;;;4964666;28;20030;-85
2024/01/26 07:03:49;;;;;;;6.23;3.00;;;7.20;99.90;;;;;;4963495;28;20363;-86
2024/01/26 07:06:14;;;;;;;5.23;3.07;;;7.20;99.90;;;;;;4965758;28;20034;-86
2024/01/26 07:08:40;;;;;;;4.40;2.83;;;7.20;99.90;;;;;;4946080;28;20050;-85
2024/01/26 07:11:06;;;;;;;5.30;2.20;;;7.20;99.90;;;;;;4963854;28;20121;-85
2024/01/26 07:13:33;;;;;;;3.37;2.23;;;7.20;99.90;;;;;;4963073;28;20035;-85
2024/01/26 07:15:58;;;;;;;5.30;2.23;;;7.20;99.90;;;;;;4965132;28;20106;-84
2024/01/26 07:18:24;;;;;;;5.13;2.10;;;7.20;99.90;;;;;;4945205;28;20030;-85
2024/01/26 07:20:49;;;;;;;4.03;2.33;;;7.20;99.90;;;;;;4967055;28;20055;-84
2024/01/26 07:23:15;;;;;;;2.13;1.70;;;7.20;99.90;;;;;;4961782;28;20093;-84
2024/01/26 07:25:40;;;;;;;4.60;1.73;;;7.20;99.90;;;;;;4946241;28;20121;-84
2024/01/26 07:28:09;;;;;;;4.67;2.07;;;7.30;99.90;;;;;;4966074;28;20042;-85
2024/01/26 07:30:35;;;;;;;4.57;2.23;;;7.30;99.90;;;;;;4971953;28;20209;-84
2024/01/26 07:33:00;;;;;;;2.87;1.90;;;7.30;99.90;;;;;;4971679;28;20594;-84
2024/01/26 07:35:26;;;;;;;3.73;1.93;;;7.40;99.90;;;;;;4971161;28;20035;-84
2024/01/26 07:37:51;;;;;;;2.90;2.00;;;7.40;99.90;;;;;;4971159;28;20668;-84
2024/01/26 07:40:17;;;;;;;5.53;2.17;;;7.40;99.90;;;;;;4970809;28;20046;-84
2024/01/26 07:42:42;;;;;;;3.47;2.03;;;7.40;99.90;;;;;;4971697;28;20050;-84
2024/01/26 07:45:08;;;;;;;3.97;2.00;;;7.40;99.90;;;;;;4971430;28;20018;-84
2024/01/26 07:47:37;;;;;;;4.67;2.13;;;7.40;99.90;;;;;;4971008;28;20031;-83
2024/01/26 07:50:03;;;;;;;4.20;1.90;;;7.50;99.90;;;;;;4954407;28;20027;-84
2024/01/26 07:52:29;;;;;;;4.07;2.17;;;7.50;99.90;;;;;;4971997;28;20780;-84
2024/01/26 07:54:54;;;;;;;5.03;1.80;;;7.50;99.90;;;;;;4971394;28;20118;-84
2024/01/26 07:57:21;;;;;;;2.00;1.50;;;7.50;99.90;;;;;;4969418;28;20121;-84
2024/01/26 07:59:47;;;;;;;2.10;1.67;;;7.60;99.90;;;;;;4971484;28;20054;-84
2024/01/26 08:02:13;;;;;;;2.43;1.63;;;7.50;99.90;;;;;;4970195;28;20031;-84
2024/01/26 08:04:38;;;;;;;4.57;1.50;;;7.60;99.90;;;;;;4970390;28;20054;-84
2024/01/26 08:07:04;;;;;;;4.43;2.00;;;7.60;99.90;;;;;;4970736;28;20034;-84
2024/01/26 08:09:29;;;;;;;2.93;1.57;;;7.60;99.90;;;;;;4971751;28;20038;-84
2024/01/26 08:11:55;;;;;;;3.13;1.57;;;7.70;99.90;;;;;;4971414;28;20090;-85
2024/01/26 08:14:20;;;;;;;2.50;1.60;;;7.70;99.90;;;;;;4972555;28;20042;-84
2024/01/26 08:16:46;;;;;;;2.60;1.27;;;7.80;99.90;;;;;;4971764;28;20094;-84
2024/01/26 08:19:11;;;;;;;3.03;1.33;;;7.80;99.90;;;;;;4972841;28;20022;-85
2024/01/26 08:21:37;;;;;;;3.03;1.40;;;7.90;99.90;;;;;;4971808;28;20035;-84
2024/01/26 08:24:02;;;;;;;4.60;1.40;;;7.90;99.90;;;;;;4971910;28;20035;-84
2024/01/26 08:26:30;;;;;;;1.67;1.20;;;8.00;99.90;;;;;;4971310;28;20038;-84
2024/01/26 08:28:55;;;;;;;2.63;1.33;;;8.00;99.90;;;;;;4971869;28;20038;-84
2024/01/26 08:31:21;;;;;;;1.87;1.20;;;8.00;99.90;;;;;;4972173;28;20030;-84
2024/01/26 08:33:47;;;;;;;2.07;1.00;;;8.10;99.90;;;;;;4972168;28;20039;-84
2024/01/26 08:36:13;;;;;;;2.90;1.20;;;8.10;99.90;;;;;;4971397;28;20344;-84
2024/01/26 08:38:38;;;;;;;3.20;1.20;;;8.30;99.90;;;;;;4970919;28;20027;-84
2024/01/26 08:41:07;;;;;;;3.37;1.20;;;8.30;99.90;;;;;;4971001;28;20023;-84
2024/01/26 08:43:33;;;;;;;6.23;2.60;;;8.40;99.90;;;;;;4970892;28;20058;-84
2024/01/26 08:45:59;;;;;;;1.60;1.07;;;8.50;99.90;;;;;;4970133;28;20087;-84
2024/01/26 08:48:24;;;;;;;3.40;1.10;;;8.60;99.90;;;;;;4970636;28;20149;-84
2024/01/26 08:50:50;;;;;;;2.13;1.10;;;8.60;99.90;;;;;;4971346;28;20027;-85
2024/01/26 08:53:16;;;;;;;2.30;1.10;;;8.60;99.90;;;;;;4971562;28;20117;-85
2024/01/26 08:55:42;;;;;;;2.00;1.00;;;8.60;99.90;;;;;;4969843;28;20108;-85
2024/01/26 08:58:08;;;;;;;2.83;1.30;;;8.70;99.90;;;;;;4970578;28;20043;-84
2024/01/26 09:00:34;;;;;;;2.20;1.10;;;8.80;99.90;;;;;;4970123;28;20049;-85
2024/01/26 09:03:00;;;;;;;1.83;1.10;;;8.80;99.90;;;;;;4968647;28;20035;-84
2024/01/26 09:05:25;;;;;;;1.60;1.10;;;8.90;99.90;;;;;;4969123;28;20030;-84
2024/01/26 09:07:51;;;;;;;1.97;1.10;;;8.90;99.90;;;;;;4968914;28;20039;-83
2024/01/26 09:10:17;;;;;;;2.57;0.93;;;9.00;99.90;;;;;;4968144;28;20031;-84
2024/01/26 09:12:43;;;;;;;3.80;1.50;;;9.00;99.90;;;;;;4968097;28;20027;-85
2024/01/26 09:15:09;;;;;;;2.43;1.20;;;9.10;99.90;;;;;;4951868;28;20042;-85
2024/01/26 09:17:34;;;;;;;2.27;1.20;;;9.10;99.90;;;;;;4969030;28;20158;-85
2024/01/26 09:20:00;;;;;;;2.67;0.97;;;9.20;99.90;;;;;;4968351;28;20037;-84
2024/01/26 09:22:27;;;;;;;2.47;1.27;;;9.20;99.90;;;;;;4969080;28;20027;-84
2024/01/26 09:24:53;;;;;;;2.67;1.13;;;9.30;99.90;;;;;;4950182;28;20034;-84
2024/01/26 09:27:20;;;;;;;2.20;0.87;;;9.30;99.90;;;;;;4966536;28;20030;-83
2024/01/26 09:29:46;;;;;;;1.50;1.10;;;9.40;99.90;;;;;;4949875;28;20038;-83
2024/01/26 09:32:11;;;;;;;1.53;1.00;;;9.50;99.90;;;;;;4968464;28;20720;-83
2024/01/26 09:34:37;;;;;;;1.07;0.80;;;9.60;99.90;;;;;;4968145;28;20129;-84
2024/01/26 09:37:02;;;;;;;1.77;1.00;;;9.60;99.90;;;;;;4968143;28;20602;-84
2024/01/26 09:39:28;;;;;;;2.90;1.07;;;9.60;99.90;;;;;;4966110;28;20109;-84
2024/01/26 09:41:55;;;;;;;1.30;0.90;;;9.80;99.90;;;;;;4968800;28;20019;-84
2024/01/26 09:44:21;;;;;;;1.67;1.03;;;9.80;99.90;;;;;;4967557;28;20038;-84
2024/01/26 09:46:47;;;;;;;1.37;0.87;;;9.80;99.90;;;;;;4951139;28;20117;-84
2024/01/26 09:49:13;;;;;;;2.00;0.80;;;9.80;99.90;;;;;;4967865;28;20113;-84
2024/01/26 09:51:40;;;;;;;2.00;1.20;;;9.90;99.90;;;;;;4967903;28;20031;-83
2024/01/26 09:54:07;;;;;;;1.20;0.80;;;9.90;99.90;;;;;;4965210;28;20035;-84
2024/01/26 09:56:36;;;;;;;1.50;0.83;;;9.80;99.90;;;;;;4959853;28;20358;-85
2024/01/26 09:59:03;;;;;;;1.40;0.90;;;9.90;99.90;;;;;;4946564;28;20050;-86
2024/01/26 10:01:31;;;;;;;2.37;1.10;;;10.00;99.90;;;;;;4968580;28;20100;-84
2024/01/26 10:03:56;;;;;;;2.83;1.00;;;10.10;99.90;;;;;;4968986;28;20169;-85
2024/01/26 10:06:22;;;;;;;3.23;1.10;;;10.10;99.90;;;;;;4970624;28;20094;-84
2024/01/26 10:08:48;;;;;;;1.63;0.90;;;10.30;99.90;;;;;;4967744;28;20046;-84
2024/01/26 10:11:13;;;;;;;1.33;0.90;;;10.40;99.90;;;;;;4967122;28;20065;-85
2024/01/26 10:13:39;;;;;;;1.43;0.83;;;10.40;99.90;;;;;;4967039;28;20062;-84
2024/01/26 10:16:10;;;;;;;1.50;0.93;;;10.40;99.90;;;;;;4968140;28;20039;-84
2024/01/26 10:18:46;;;;;;;1.80;1.10;;;10.40;99.90;;;;;;4969593;28;20042;-84
2024/01/26 10:21:13;;;;;;;2.20;0.90;;;10.50;99.90;;;;;;4969782;28;20137;-84
2024/01/26 10:23:39;;;;;;;1.60;0.80;;;10.50;99.90;;;;;;4968107;28;20030;-85
2024/01/26 10:26:05;;;;;;;1.70;0.90;;;10.60;99.90;;;;;;4966373;28;21089;-84
2024/01/26 10:28:31;;;;;;;1.93;0.90;;;10.70;99.90;;;;;;4966962;28;20094;-85
2024/01/26 10:30:56;;;;;;;2.97;0.90;;;10.80;99.90;;;;;;4966584;28;20018;-85
2024/01/26 10:33:23;;;;;;;2.03;0.90;;;10.80;99.90;;;;;;4968336;28;20046;-85
2024/01/26 10:35:51;;;;;;;1.40;0.77;;;10.80;99.90;;;;;;4970697;28;20045;-83
2024/01/26 10:38:17;;;;;;;1.80;1.00;;;10.80;99.90;;;;;;4965414;28;20119;-90
2024/01/26 10:40:44;;;;;;;1.03;0.70;;;10.90;99.90;;;;;;4957938;28;20036;-85
2024/01/26 10:43:12;;;;;;;3.27;1.40;;;11.00;99.90;;;;;;4957766;28;20034;-85
2024/01/26 10:45:38;;;;;;;1.93;1.00;;;11.10;99.90;;;;;;4957205;28;20031;-85
2024/01/26 10:48:09;;;;;;;1.27;0.80;;;11.00;99.90;;;;;;4958513;28;20061;-87
2024/01/26 10:50:36;;;;;;;1.97;0.97;;;11.10;99.90;;;;;;4940398;28;20913;-85
2024/01/26 10:53:04;;;;;;;2.00;1.07;;;11.10;99.90;;;;;;4940678;28;20058;-86
2024/01/26 10:55:30;;;;;;;3.13;0.90;;;11.20;99.90;;;;;;4958428;28;20061;-86
2024/01/26 10:57:56;;;;;;;3.85;0.98;;;11.30;99.90;;;;;;4958069;28;20033;-85
2024/01/26 11:00:22;;;;;;;2.53;1.20;;;11.20;99.90;;;;;;4958756;28;20030;-86
2024/01/26 11:02:48;;;;;;;1.10;0.73;;;11.20;99.90;;;;;;4958692;28;20050;-85
2024/01/26 11:05:14;;;;;;;1.17;0.70;;;11.20;99.90;;;;;;4958847;28;20027;-86
2024/01/26 11:07:41;;;;;;;1.67;1.00;;;11.20;99.90;;;;;;4957715;28;20064;-85
2024/01/26 11:10:21;;;;;;;1.47;1.00;;;11.20;99.90;;;;;;4957605;28;20113;-85
2024/01/26 11:12:47;;;;;;;1.70;0.90;;;11.10;99.90;;;;;;4958544;28;20034;-85
2024/01/26 11:15:13;;;;;;;1.43;0.93;;;11.10;99.90;;;;;;4957476;28;20060;-84
2024/01/26 11:17:56;;;;;;;2.27;0.83;;;11.10;99.90;;;;;;4959132;28;20644;-85
2024/01/26 11:20:31;;;;;;;3.03;1.10;;;11.10;99.90;;;;;;4966671;28;20446;-88
2024/01/26 11:23:06;;;;;;;1.90;0.90;;;11.20;99.90;;;;;;4970397;28;20058;-87
2024/01/26 11:25:35;;;;;;;3.23;0.90;;;11.30;99.90;;;;;;4968254;28;20270;-87
2024/01/26 11:28:02;;;;;;;1.20;0.90;;;11.20;99.90;;;;;;4950836;28;20039;-88
2024/01/26 11:30:28;;;;;;;1.43;0.80;;;11.20;99.90;;;;;;4968296;28;20121;-87
2024/01/26 11:32:54;;;;;;;2.77;0.90;;;11.10;99.90;;;;;;4951748;28;21205;-88
2024/01/26 11:35:20;;;;;;;2.67;1.00;;;11.20;99.90;;;;;;4961051;28;20023;-87
2024/01/26 11:37:47;;;;;;;1.77;1.10;;;11.10;99.90;;;;;;4968352;28;20106;-87
2024/01/26 11:40:14;;;;;;;1.63;1.00;;;11.20;99.90;;;;;;4963116;28;20034;-87
2024/01/26 11:42:40;;;;;;;1.93;0.90;;;11.10;99.90;;;;;;4968580;28;20043;-88
2024/01/26 11:45:13;;;;;;;2.30;1.00;;;11.20;99.90;;;;;;4966918;28;20050;-87
2024/01/26 11:47:39;;;;;;;2.30;0.97;;;11.30;99.90;;;;;;4966910;28;20255;-88
2024/01/26 11:50:07;;;;;;;2.20;0.90;;;11.40;99.90;;;;;;4964933;28;20031;-88
2024/01/26 11:52:34;;;;;;;2.20;1.00;;;11.60;99.90;;;;;;4964490;28;20069;-86
2024/01/26 11:55:00;;;;;;;4.43;1.00;;;11.60;99.90;;;;;;4965407;28;20493;-88
2024/01/26 11:57:27;;;;;;;2.87;1.00;;;11.60;99.90;;;;;;4965029;28;20023;-87
2024/01/26 11:59:52;;;;;;;3.17;0.97;;;11.70;99.90;;;;;;4964012;28;20059;-87
2024/01/26 12:02:19;;;;;;;1.40;1.00;;;11.70;99.90;;;;;;4966050;28;20055;-87
2024/01/26 12:04:44;;;;;;;2.00;1.00;;;11.70;99.90;;;;;;4963095;28;20118;-86
2024/01/26 12:07:10;;;;;;;3.17;1.17;;;11.70;99.90;;;;;;4944635;28;20117;-86
2024/01/26 12:09:35;;;;;;;2.00;1.10;;;11.70;99.90;;;;;;4963935;28;20031;-87
2024/01/26 12:12:03;;;;;;;2.87;1.10;;;11.60;99.90;;;;;;4964817;28;20027;-87
2024/01/26 12:14:29;;;;;;;2.37;1.00;;;11.60;99.90;;;;;;4946953;28;20026;-87
2024/01/26 12:16:55;;;;;;;1.53;1.00;;;11.50;99.90;;;;;;4970821;28;20118;-88
2024/01/26 12:19:20;;;;;;;3.10;1.17;;;11.50;99.90;;;;;;4969067;28;20027;-88
2024/01/26 12:21:49;;;;;;;2.00;1.10;;;11.40;99.90;;;;;;4967682;28;20023;-88
2024/01/26 12:24:15;;;;;;;1.30;1.07;;;11.40;99.90;;;;;;4969054;28;20280;-87
2024/01/26 12:26:41;;;;;;;1.80;1.20;;;11.30;99.90;;;;;;4970097;28;20035;-87
2024/01/26 12:29:08;;;;;;;1.97;1.10;;;11.30;99.90;;;;;;4968086;28;20038;-88
2024/01/26 12:31:34;;;;;;;1.83;1.17;;;11.30;99.90;;;;;;4970359;28;20109;-87
2024/01/26 12:34:01;;;;;;;2.50;1.10;;;11.30;99.90;;;;;;4968840;28;20018;-91
2024/01/26 12:36:31;;;;;;;1.53;1.07;;;11.20;99.90;;;;;;4968596;28;20019;-88
2024/01/26 12:39:00;;;;;;;2.73;1.30;;;11.10;99.90;;;;;;4952114;28;20058;-88
2024/01/26 12:41:31;;;;;;;1.90;1.20;;;11.00;99.90;;;;;;4948289;28;20039;-88
2024/01/26 12:43:57;;;;;;;4.53;1.13;;;10.90;99.90;;;;;;4950958;28;20035;-88